sensor_id;sensor_type;location;lat;lon;timestamp;P1;durP1;ratioP1;P2;durP2;ratioP2
61743;SDS011;48718;54.994;73.352;2022-07-09T00:01:09;2.35;;;1.50;;
61743;SDS011;48718;54.994;73.352;2022-07-09T00:03:35;1.85;;;1.48;;
61743;SDS011;48718;54.994;73.352;2022-07-09T00:06:06;2.15;;;1.58;;
61743;SDS011;48718;54.994;73.352;2022-07-09T00:08:32;2.30;;;1.60;;
61743;SDS011;48718;54.994;73.352;2022-07-09T00:10:59;1.85;;;1.55;;
61743;SDS011;48718;54.994;73.352;2022-07-09T00:13:30;1.58;;;1.23;;
61743;SDS011;48718;54.994;73.352;2022-07-09T00:15:57;1.90;;;1.50;;
61743;SDS011;48718;54.994;73.352;2022-07-09T00:18:23;2.22;;;1.98;;
61743;SDS011;48718;54.994;73.352;2022-07-09T00:20:53;1.90;;;1.60;;
61743;SDS011;48718;54.994;73.352;2022-07-09T00:23:21;2.10;;;1.45;;
61743;SDS011;48718;54.994;73.352;2022-07-09T00:25:48;1.48;;;1.35;;
61743;SDS011;48718;54.994;73.352;2022-07-09T00:28:14;1.27;;;1.17;;
61743;SDS011;48718;54.994;73.352;2022-07-09T00:30:40;1.60;;;1.35;;
61743;SDS011;48718;54.994;73.352;2022-07-09T00:33:07;1.75;;;1.52;;
61743;SDS011;48718;54.994;73.352;2022-07-09T00:35:34;1.63;;;1.35;;
61743;SDS011;48718;54.994;73.352;2022-07-09T00:38:06;2.35;;;1.58;;
61743;SDS011;48718;54.994;73.352;2022-07-09T00:40:33;1.60;;;1.50;;
61743;SDS011;48718;54.994;73.352;2022-07-09T00:43:00;1.80;;;1.45;;
61743;SDS011;48718;54.994;73.352;2022-07-09T00:45:31;2.08;;;1.67;;
61743;SDS011;48718;54.994;73.352;2022-07-09T00:47:58;1.70;;;1.60;;
61743;SDS011;48718;54.994;73.352;2022-07-09T00:50:24;1.60;;;1.45;;
61743;SDS011;48718;54.994;73.352;2022-07-09T00:52:53;1.85;;;1.42;;
61743;SDS011;48718;54.994;73.352;2022-07-09T00:55:20;1.88;;;1.20;;
61743;SDS011;48718;54.994;73.352;2022-07-09T00:57:47;1.92;;;1.50;;
61743;SDS011;48718;54.994;73.352;2022-07-09T01:00:19;2.20;;;1.40;;
61743;SDS011;48718;54.994;73.352;2022-07-09T01:02:46;1.30;;;1.20;;
61743;SDS011;48718;54.994;73.352;2022-07-09T01:05:15;2.03;;;1.40;;
61743;SDS011;48718;54.994;73.352;2022-07-09T01:07:42;2.10;;;1.70;;
61743;SDS011;48718;54.994;73.352;2022-07-09T01:10:08;2.85;;;1.40;;
61743;SDS011;48718;54.994;73.352;2022-07-09T01:12:35;2.15;;;1.58;;
61743;SDS011;48718;54.994;73.352;2022-07-09T01:15:07;1.88;;;1.30;;
61743;SDS011;48718;54.994;73.352;2022-07-09T01:17:41;2.00;;;1.77;;
61743;SDS011;48718;54.994;73.352;2022-07-09T01:20:08;3.28;;;1.63;;
61743;SDS011;48718;54.994;73.352;2022-07-09T01:22:35;1.55;;;1.45;;
61743;SDS011;48718;54.994;73.352;2022-07-09T01:25:01;1.77;;;1.60;;
61743;SDS011;48718;54.994;73.352;2022-07-09T01:27:35;1.25;;;1.15;;
61743;SDS011;48718;54.994;73.352;2022-07-09T01:30:09;1.52;;;1.33;;
61743;SDS011;48718;54.994;73.352;2022-07-09T01:32:41;1.42;;;1.33;;
61743;SDS011;48718;54.994;73.352;2022-07-09T01:35:15;1.73;;;1.48;;
61743;SDS011;48718;54.994;73.352;2022-07-09T01:37:45;1.80;;;1.60;;
61743;SDS011;48718;54.994;73.352;2022-07-09T01:40:16;1.77;;;1.40;;
61743;SDS011;48718;54.994;73.352;2022-07-09T01:42:46;1.63;;;1.52;;
61743;SDS011;48718;54.994;73.352;2022-07-09T01:45:16;2.30;;;1.42;;
61743;SDS011;48718;54.994;73.352;2022-07-09T01:47:43;2.47;;;1.60;;
61743;SDS011;48718;54.994;73.352;2022-07-09T01:50:10;1.92;;;1.40;;
61743;SDS011;48718;54.994;73.352;2022-07-09T01:52:37;1.75;;;1.50;;
61743;SDS011;48718;54.994;73.352;2022-07-09T01:55:04;2.80;;;1.70;;
61743;SDS011;48718;54.994;73.352;2022-07-09T01:57:31;1.85;;;1.70;;
61743;SDS011;48718;54.994;73.352;2022-07-09T01:59:57;1.42;;;1.27;;
61743;SDS011;48718;54.994;73.352;2022-07-09T02:02:24;2.03;;;1.50;;
61743;SDS011;48718;54.994;73.352;2022-07-09T02:04:51;2.22;;;1.55;;
61743;SDS011;48718;54.994;73.352;2022-07-09T02:07:17;1.85;;;1.52;;
61743;SDS011;48718;54.994;73.352;2022-07-09T02:09:44;2.08;;;1.55;;
61743;SDS011;48718;54.994;73.352;2022-07-09T02:12:20;1.83;;;1.40;;
61743;SDS011;48718;54.994;73.352;2022-07-09T02:14:47;1.73;;;1.48;;
61743;SDS011;48718;54.994;73.352;2022-07-09T02:17:19;1.30;;;1.20;;
61743;SDS011;48718;54.994;73.352;2022-07-09T02:19:46;2.40;;;1.50;;
61743;SDS011;48718;54.994;73.352;2022-07-09T02:22:12;2.58;;;1.63;;
61743;SDS011;48718;54.994;73.352;2022-07-09T02:24:39;2.53;;;1.60;;
61743;SDS011;48718;54.994;73.352;2022-07-09T02:27:06;2.40;;;1.50;;
61743;SDS011;48718;54.994;73.352;2022-07-09T02:29:33;1.92;;;1.65;;
61743;SDS011;48718;54.994;73.352;2022-07-09T02:31:59;2.15;;;1.95;;
61743;SDS011;48718;54.994;73.352;2022-07-09T02:34:26;2.15;;;1.88;;
61743;SDS011;48718;54.994;73.352;2022-07-09T02:36:52;5.53;;;3.58;;
61743;SDS011;48718;54.994;73.352;2022-07-09T02:39:19;6.15;;;2.70;;
61743;SDS011;48718;54.994;73.352;2022-07-09T02:41:45;2.85;;;2.20;;
61743;SDS011;48718;54.994;73.352;2022-07-09T02:44:16;2.63;;;2.03;;
61743;SDS011;48718;54.994;73.352;2022-07-09T02:46:43;5.35;;;2.60;;
61743;SDS011;48718;54.994;73.352;2022-07-09T02:49:09;3.83;;;2.90;;
61743;SDS011;48718;54.994;73.352;2022-07-09T02:51:36;4.88;;;2.85;;
61743;SDS011;48718;54.994;73.352;2022-07-09T02:54:08;4.32;;;2.85;;
61743;SDS011;48718;54.994;73.352;2022-07-09T02:56:35;5.40;;;2.78;;
61743;SDS011;48718;54.994;73.352;2022-07-09T02:59:01;5.55;;;3.10;;
61743;SDS011;48718;54.994;73.352;2022-07-09T03:01:28;4.45;;;2.65;;
61743;SDS011;48718;54.994;73.352;2022-07-09T03:03:55;4.43;;;2.85;;
61743;SDS011;48718;54.994;73.352;2022-07-09T03:06:22;13.10;;;3.42;;
61743;SDS011;48718;54.994;73.352;2022-07-09T03:08:48;6.45;;;2.90;;
61743;SDS011;48718;54.994;73.352;2022-07-09T03:11:15;4.93;;;2.80;;
61743;SDS011;48718;54.994;73.352;2022-07-09T03:13:42;7.68;;;2.72;;
61743;SDS011;48718;54.994;73.352;2022-07-09T03:16:09;3.88;;;2.80;;
61743;SDS011;48718;54.994;73.352;2022-07-09T03:18:35;3.33;;;2.30;;
61743;SDS011;48718;54.994;73.352;2022-07-09T03:21:13;5.88;;;3.25;;
61743;SDS011;48718;54.994;73.352;2022-07-09T03:23:40;4.85;;;2.40;;
61743;SDS011;48718;54.994;73.352;2022-07-09T03:26:07;3.83;;;2.15;;
61743;SDS011;48718;54.994;73.352;2022-07-09T03:28:33;4.25;;;2.30;;
61743;SDS011;48718;54.994;73.352;2022-07-09T03:31:00;6.82;;;2.95;;
61743;SDS011;48718;54.994;73.352;2022-07-09T03:33:27;4.85;;;2.55;;
61743;SDS011;48718;54.994;73.352;2022-07-09T03:35:54;8.82;;;3.45;;
61743;SDS011;48718;54.994;73.352;2022-07-09T03:38:21;4.75;;;2.72;;
61743;SDS011;48718;54.994;73.352;2022-07-09T03:40:49;5.25;;;2.42;;
61743;SDS011;48718;54.994;73.352;2022-07-09T03:43:16;4.28;;;2.60;;
61743;SDS011;48718;54.994;73.352;2022-07-09T03:45:43;4.40;;;2.60;;
61743;SDS011;48718;54.994;73.352;2022-07-09T03:48:09;4.25;;;2.55;;
61743;SDS011;48718;54.994;73.352;2022-07-09T03:50:36;5.30;;;2.25;;
61743;SDS011;48718;54.994;73.352;2022-07-09T03:53:03;2.80;;;2.33;;
61743;SDS011;48718;54.994;73.352;2022-07-09T03:55:29;5.85;;;2.85;;
61743;SDS011;48718;54.994;73.352;2022-07-09T03:57:56;5.85;;;2.60;;
61743;SDS011;48718;54.994;73.352;2022-07-09T04:00:23;4.68;;;2.53;;
61743;SDS011;48718;54.994;73.352;2022-07-09T04:02:49;6.22;;;2.60;;
61743;SDS011;48718;54.994;73.352;2022-07-09T04:05:16;6.55;;;2.80;;
61743;SDS011;48718;54.994;73.352;2022-07-09T04:07:42;3.65;;;2.55;;
61743;SDS011;48718;54.994;73.352;2022-07-09T04:10:09;3.50;;;2.25;;
61743;SDS011;48718;54.994;73.352;2022-07-09T04:12:35;3.67;;;2.55;;
61743;SDS011;48718;54.994;73.352;2022-07-09T04:15:02;5.15;;;3.17;;
61743;SDS011;48718;54.994;73.352;2022-07-09T04:17:39;3.75;;;2.63;;
61743;SDS011;48718;54.994;73.352;2022-07-09T04:20:06;4.75;;;2.42;;
61743;SDS011;48718;54.994;73.352;2022-07-09T04:22:38;4.05;;;3.10;;
61743;SDS011;48718;54.994;73.352;2022-07-09T04:25:09;6.25;;;2.72;;
61743;SDS011;48718;54.994;73.352;2022-07-09T04:27:36;3.83;;;2.55;;
61743;SDS011;48718;54.994;73.352;2022-07-09T04:30:07;8.75;;;3.25;;
61743;SDS011;48718;54.994;73.352;2022-07-09T04:32:39;5.60;;;2.60;;
61743;SDS011;48718;54.994;73.352;2022-07-09T04:35:15;5.50;;;3.13;;
61743;SDS011;48718;54.994;73.352;2022-07-09T04:37:42;4.03;;;2.80;;
61743;SDS011;48718;54.994;73.352;2022-07-09T04:40:09;3.78;;;2.70;;
61743;SDS011;48718;54.994;73.352;2022-07-09T04:42:36;3.65;;;2.58;;
61743;SDS011;48718;54.994;73.352;2022-07-09T04:45:08;3.83;;;2.90;;
61743;SDS011;48718;54.994;73.352;2022-07-09T04:47:35;4.00;;;2.90;;
61743;SDS011;48718;54.994;73.352;2022-07-09T04:50:02;3.95;;;2.70;;
61743;SDS011;48718;54.994;73.352;2022-07-09T04:52:30;5.07;;;3.40;;
61743;SDS011;48718;54.994;73.352;2022-07-09T04:54:56;4.50;;;3.67;;
61743;SDS011;48718;54.994;73.352;2022-07-09T04:57:27;6.07;;;3.17;;
61743;SDS011;48718;54.994;73.352;2022-07-09T04:59:59;8.02;;;3.38;;
61743;SDS011;48718;54.994;73.352;2022-07-09T05:02:26;4.03;;;2.75;;
61743;SDS011;48718;54.994;73.352;2022-07-09T05:05:00;5.20;;;2.85;;
61743;SDS011;48718;54.994;73.352;2022-07-09T05:07:30;3.38;;;2.95;;
61743;SDS011;48718;54.994;73.352;2022-07-09T05:09:57;4.65;;;2.85;;
61743;SDS011;48718;54.994;73.352;2022-07-09T05:12:24;4.55;;;2.95;;
61743;SDS011;48718;54.994;73.352;2022-07-09T05:14:50;3.80;;;3.17;;
61743;SDS011;48718;54.994;73.352;2022-07-09T05:17:22;2.90;;;2.55;;
61743;SDS011;48718;54.994;73.352;2022-07-09T05:19:49;4.72;;;2.75;;
61743;SDS011;48718;54.994;73.352;2022-07-09T05:22:16;3.45;;;2.90;;
61743;SDS011;48718;54.994;73.352;2022-07-09T05:24:45;3.10;;;2.60;;
61743;SDS011;48718;54.994;73.352;2022-07-09T05:27:11;5.07;;;2.92;;
61743;SDS011;48718;54.994;73.352;2022-07-09T05:29:42;4.68;;;3.30;;
61743;SDS011;48718;54.994;73.352;2022-07-09T05:32:14;4.03;;;2.85;;
61743;SDS011;48718;54.994;73.352;2022-07-09T05:34:51;3.28;;;2.65;;
61743;SDS011;48718;54.994;73.352;2022-07-09T05:37:17;4.97;;;3.80;;
61743;SDS011;48718;54.994;73.352;2022-07-09T05:39:49;3.72;;;3.13;;
61743;SDS011;48718;54.994;73.352;2022-07-09T05:42:21;4.07;;;3.15;;
61743;SDS011;48718;54.994;73.352;2022-07-09T05:44:51;4.43;;;3.00;;
61743;SDS011;48718;54.994;73.352;2022-07-09T05:47:27;4.00;;;2.78;;
61743;SDS011;48718;54.994;73.352;2022-07-09T05:49:53;5.35;;;3.13;;
61743;SDS011;48718;54.994;73.352;2022-07-09T05:52:25;4.70;;;3.35;;
61743;SDS011;48718;54.994;73.352;2022-07-09T05:54:51;6.07;;;3.00;;
61743;SDS011;48718;54.994;73.352;2022-07-09T05:57:21;3.92;;;2.78;;
61743;SDS011;48718;54.994;73.352;2022-07-09T05:59:48;4.05;;;3.10;;
61743;SDS011;48718;54.994;73.352;2022-07-09T06:02:15;6.07;;;3.13;;
61743;SDS011;48718;54.994;73.352;2022-07-09T06:04:42;3.75;;;3.30;;
61743;SDS011;48718;54.994;73.352;2022-07-09T06:07:08;4.50;;;3.30;;
61743;SDS011;48718;54.994;73.352;2022-07-09T06:09:45;3.78;;;2.90;;
61743;SDS011;48718;54.994;73.352;2022-07-09T06:12:16;5.22;;;2.97;;
61743;SDS011;48718;54.994;73.352;2022-07-09T06:14:43;3.53;;;2.95;;
61743;SDS011;48718;54.994;73.352;2022-07-09T06:17:19;3.92;;;2.65;;
61743;SDS011;48718;54.994;73.352;2022-07-09T06:19:45;3.65;;;3.03;;
61743;SDS011;48718;54.994;73.352;2022-07-09T06:22:20;3.53;;;2.83;;
61743;SDS011;48718;54.994;73.352;2022-07-09T06:24:47;3.88;;;3.40;;
61743;SDS011;48718;54.994;73.352;2022-07-09T06:27:14;6.15;;;4.15;;
61743;SDS011;48718;54.994;73.352;2022-07-09T06:32:13;4.03;;;2.90;;
61743;SDS011;48718;54.994;73.352;2022-07-09T06:34:40;5.20;;;3.53;;
61743;SDS011;48718;54.994;73.352;2022-07-09T06:37:07;5.60;;;3.45;;
61743;SDS011;48718;54.994;73.352;2022-07-09T06:39:33;3.75;;;2.90;;
61743;SDS011;48718;54.994;73.352;2022-07-09T06:42:22;3.60;;;2.90;;
61743;SDS011;48718;54.994;73.352;2022-07-09T06:44:48;4.55;;;3.13;;
61743;SDS011;48718;54.994;73.352;2022-07-09T06:47:15;3.58;;;3.22;;
61743;SDS011;48718;54.994;73.352;2022-07-09T06:49:43;4.18;;;3.45;;
61743;SDS011;48718;54.994;73.352;2022-07-09T06:52:20;4.38;;;3.10;;
61743;SDS011;48718;54.994;73.352;2022-07-09T06:54:47;3.42;;;3.10;;
61743;SDS011;48718;54.994;73.352;2022-07-09T06:57:14;3.45;;;3.13;;
61743;SDS011;48718;54.994;73.352;2022-07-09T06:59:42;6.57;;;3.40;;
61743;SDS011;48718;54.994;73.352;2022-07-09T07:02:12;5.70;;;3.45;;
61743;SDS011;48718;54.994;73.352;2022-07-09T07:04:39;3.20;;;2.80;;
61743;SDS011;48718;54.994;73.352;2022-07-09T07:07:05;3.55;;;3.03;;
61743;SDS011;48718;54.994;73.352;2022-07-09T07:09:32;3.08;;;2.78;;
61743;SDS011;48718;54.994;73.352;2022-07-09T07:12:00;4.45;;;3.40;;
61743;SDS011;48718;54.994;73.352;2022-07-09T07:14:27;4.13;;;3.35;;
61743;SDS011;48718;54.994;73.352;2022-07-09T07:16:58;3.63;;;3.22;;
61743;SDS011;48718;54.994;73.352;2022-07-09T07:19:25;3.20;;;2.90;;
61743;SDS011;48718;54.994;73.352;2022-07-09T07:21:52;3.90;;;3.10;;
61743;SDS011;48718;54.994;73.352;2022-07-09T07:24:18;3.75;;;3.17;;
61743;SDS011;48718;54.994;73.352;2022-07-09T07:26:47;4.05;;;2.90;;
61743;SDS011;48718;54.994;73.352;2022-07-09T07:29:14;3.85;;;3.28;;
61743;SDS011;48718;54.994;73.352;2022-07-09T07:31:40;3.90;;;3.20;;
61743;SDS011;48718;54.994;73.352;2022-07-09T07:34:07;4.53;;;3.20;;
61743;SDS011;48718;54.994;73.352;2022-07-09T07:36:38;3.90;;;3.40;;
61743;SDS011;48718;54.994;73.352;2022-07-09T07:39:04;4.43;;;3.60;;
61743;SDS011;48718;54.994;73.352;2022-07-09T07:41:31;5.28;;;3.80;;
61743;SDS011;48718;54.994;73.352;2022-07-09T07:43:58;3.83;;;2.85;;
61743;SDS011;48718;54.994;73.352;2022-07-09T07:46:25;4.32;;;3.75;;
61743;SDS011;48718;54.994;73.352;2022-07-09T07:49:01;5.43;;;3.50;;
61743;SDS011;48718;54.994;73.352;2022-07-09T07:51:27;3.88;;;3.42;;
61743;SDS011;48718;54.994;73.352;2022-07-09T07:53:54;5.38;;;3.70;;
61743;SDS011;48718;54.994;73.352;2022-07-09T07:56:21;3.60;;;3.30;;
61743;SDS011;48718;54.994;73.352;2022-07-09T07:58:48;5.82;;;3.28;;
61743;SDS011;48718;54.994;73.352;2022-07-09T08:01:24;4.22;;;3.33;;
61743;SDS011;48718;54.994;73.352;2022-07-09T08:03:51;6.82;;;3.58;;
61743;SDS011;48718;54.994;73.352;2022-07-09T08:06:18;4.78;;;3.63;;
61743;SDS011;48718;54.994;73.352;2022-07-09T08:08:44;4.63;;;3.30;;
61743;SDS011;48718;54.994;73.352;2022-07-09T08:11:11;3.95;;;3.47;;
61743;SDS011;48718;54.994;73.352;2022-07-09T08:13:42;5.18;;;3.83;;
61743;SDS011;48718;54.994;73.352;2022-07-09T08:16:09;4.10;;;3.25;;
61743;SDS011;48718;54.994;73.352;2022-07-09T08:18:36;3.72;;;3.38;;
61743;SDS011;48718;54.994;73.352;2022-07-09T08:21:02;4.55;;;3.45;;
61743;SDS011;48718;54.994;73.352;2022-07-09T08:23:29;4.07;;;3.67;;
61743;SDS011;48718;54.994;73.352;2022-07-09T08:26:00;4.00;;;3.45;;
61743;SDS011;48718;54.994;73.352;2022-07-09T08:28:26;4.30;;;3.30;;
61743;SDS011;48718;54.994;73.352;2022-07-09T08:30:53;5.90;;;3.33;;
61743;SDS011;48718;54.994;73.352;2022-07-09T08:33:24;4.63;;;3.45;;
61743;SDS011;48718;54.994;73.352;2022-07-09T08:35:51;4.70;;;3.60;;
61743;SDS011;48718;54.994;73.352;2022-07-09T08:38:17;3.47;;;3.17;;
61743;SDS011;48718;54.994;73.352;2022-07-09T08:40:49;4.00;;;3.28;;
61743;SDS011;48718;54.994;73.352;2022-07-09T08:43:16;3.90;;;3.20;;
61743;SDS011;48718;54.994;73.352;2022-07-09T08:45:43;6.28;;;4.18;;
61743;SDS011;48718;54.994;73.352;2022-07-09T08:48:11;4.65;;;3.38;;
61743;SDS011;48718;54.994;73.352;2022-07-09T08:50:39;4.28;;;3.70;;
61743;SDS011;48718;54.994;73.352;2022-07-09T08:53:06;4.43;;;3.55;;
61743;SDS011;48718;54.994;73.352;2022-07-09T08:55:35;4.32;;;3.83;;
61743;SDS011;48718;54.994;73.352;2022-07-09T08:58:03;4.07;;;3.05;;
61743;SDS011;48718;54.994;73.352;2022-07-09T09:00:31;4.57;;;3.63;;
61743;SDS011;48718;54.994;73.352;2022-07-09T09:02:58;5.43;;;3.58;;
61743;SDS011;48718;54.994;73.352;2022-07-09T09:05:25;4.43;;;3.30;;
61743;SDS011;48718;54.994;73.352;2022-07-09T09:07:51;5.82;;;3.83;;
61743;SDS011;48718;54.994;73.352;2022-07-09T09:10:21;5.95;;;3.75;;
61743;SDS011;48718;54.994;73.352;2022-07-09T09:12:55;5.00;;;4.07;;
61743;SDS011;48718;54.994;73.352;2022-07-09T09:15:28;5.57;;;3.30;;
61743;SDS011;48718;54.994;73.352;2022-07-09T09:17:56;4.22;;;3.55;;
61743;SDS011;48718;54.994;73.352;2022-07-09T09:20:23;4.45;;;3.80;;
61743;SDS011;48718;54.994;73.352;2022-07-09T09:22:51;4.32;;;3.50;;
61743;SDS011;48718;54.994;73.352;2022-07-09T09:25:28;4.85;;;3.95;;
61743;SDS011;48718;54.994;73.352;2022-07-09T09:27:56;4.32;;;3.90;;
61743;SDS011;48718;54.994;73.352;2022-07-09T09:30:24;4.45;;;3.40;;
61743;SDS011;48718;54.994;73.352;2022-07-09T09:35:24;5.50;;;3.42;;
61743;SDS011;48718;54.994;73.352;2022-07-09T09:37:52;5.53;;;3.83;;
61743;SDS011;48718;54.994;73.352;2022-07-09T09:40:19;4.47;;;3.63;;
61743;SDS011;48718;54.994;73.352;2022-07-09T09:42:46;5.85;;;3.78;;
61743;SDS011;48718;54.994;73.352;2022-07-09T09:45:14;4.47;;;3.83;;
61743;SDS011;48718;54.994;73.352;2022-07-09T09:47:51;3.88;;;3.22;;
61743;SDS011;48718;54.994;73.352;2022-07-09T09:50:20;3.90;;;3.47;;
61743;SDS011;48718;54.994;73.352;2022-07-09T09:52:49;4.07;;;3.50;;
61743;SDS011;48718;54.994;73.352;2022-07-09T09:55:17;4.75;;;3.28;;
61743;SDS011;48718;54.994;73.352;2022-07-09T09:57:45;3.88;;;3.40;;
61743;SDS011;48718;54.994;73.352;2022-07-09T10:00:12;5.40;;;3.42;;
61743;SDS011;48718;54.994;73.352;2022-07-09T10:02:46;5.32;;;4.40;;
61743;SDS011;48718;54.994;73.352;2022-07-09T10:05:14;4.00;;;3.50;;
61743;SDS011;48718;54.994;73.352;2022-07-09T10:07:41;4.35;;;3.95;;
61743;SDS011;48718;54.994;73.352;2022-07-09T10:10:21;4.10;;;3.50;;
61743;SDS011;48718;54.994;73.352;2022-07-09T10:12:47;4.63;;;3.78;;
61743;SDS011;48718;54.994;73.352;2022-07-09T10:15:23;4.55;;;3.70;;
61743;SDS011;48718;54.994;73.352;2022-07-09T10:17:53;4.05;;;3.47;;
61743;SDS011;48718;54.994;73.352;2022-07-09T10:20:29;5.05;;;3.58;;
61743;SDS011;48718;54.994;73.352;2022-07-09T10:22:58;6.45;;;4.35;;
61743;SDS011;48718;54.994;73.352;2022-07-09T10:25:28;4.43;;;3.47;;
61743;SDS011;48718;54.994;73.352;2022-07-09T10:27:56;4.55;;;3.22;;
61743;SDS011;48718;54.994;73.352;2022-07-09T10:30:27;4.93;;;3.80;;
61743;SDS011;48718;54.994;73.352;2022-07-09T10:33:08;5.30;;;3.97;;
61743;SDS011;48718;54.994;73.352;2022-07-09T10:35:45;4.17;;;3.77;;
61743;SDS011;48718;54.994;73.352;2022-07-09T10:38:13;4.40;;;3.58;;
61743;SDS011;48718;54.994;73.352;2022-07-09T10:40:45;5.57;;;3.38;;
61743;SDS011;48718;54.994;73.352;2022-07-09T10:43:13;4.28;;;3.80;;
61743;SDS011;48718;54.994;73.352;2022-07-09T10:45:47;4.47;;;3.70;;
61743;SDS011;48718;54.994;73.352;2022-07-09T10:48:14;4.03;;;3.63;;
61743;SDS011;48718;54.994;73.352;2022-07-09T10:50:42;5.32;;;3.65;;
61743;SDS011;48718;54.994;73.352;2022-07-09T10:53:10;4.45;;;3.50;;
61743;SDS011;48718;54.994;73.352;2022-07-09T10:55:40;3.97;;;3.58;;
61743;SDS011;48718;54.994;73.352;2022-07-09T10:58:21;4.25;;;3.70;;
61743;SDS011;48718;54.994;73.352;2022-07-09T11:03:27;4.50;;;3.72;;
61743;SDS011;48718;54.994;73.352;2022-07-09T11:05:56;4.25;;;3.67;;
61743;SDS011;48718;54.994;73.352;2022-07-09T11:08:23;4.13;;;3.72;;
61743;SDS011;48718;54.994;73.352;2022-07-09T11:10:56;3.85;;;3.42;;
61743;SDS011;48718;54.994;73.352;2022-07-09T11:13:27;4.30;;;3.90;;
61743;SDS011;48718;54.994;73.352;2022-07-09T11:15:58;4.35;;;3.50;;
61743;SDS011;48718;54.994;73.352;2022-07-09T11:18:27;4.57;;;3.95;;
61743;SDS011;48718;54.994;73.352;2022-07-09T11:20:54;4.90;;;3.53;;
61743;SDS011;48718;54.994;73.352;2022-07-09T11:23:31;4.30;;;3.90;;
61743;SDS011;48718;54.994;73.352;2022-07-09T11:25:58;5.18;;;3.97;;
61743;SDS011;48718;54.994;73.352;2022-07-09T11:28:30;6.13;;;4.10;;
61743;SDS011;48718;54.994;73.352;2022-07-09T11:30:59;5.05;;;3.83;;
61743;SDS011;48718;54.994;73.352;2022-07-09T11:33:27;4.63;;;3.58;;
61743;SDS011;48718;54.994;73.352;2022-07-09T11:36:14;4.60;;;3.60;;
61743;SDS011;48718;54.994;73.352;2022-07-09T11:38:50;5.10;;;3.67;;
61743;SDS011;48718;54.994;73.352;2022-07-09T11:41:17;5.28;;;4.25;;
61743;SDS011;48718;54.994;73.352;2022-07-09T11:43:51;4.43;;;3.70;;
61743;SDS011;48718;54.994;73.352;2022-07-09T11:46:21;4.40;;;4.00;;
61743;SDS011;48718;54.994;73.352;2022-07-09T11:48:51;4.72;;;4.25;;
61743;SDS011;48718;54.994;73.352;2022-07-09T11:51:41;5.82;;;3.83;;
61743;SDS011;48718;54.994;73.352;2022-07-09T11:54:08;4.55;;;3.97;;
61743;SDS011;48718;54.994;73.352;2022-07-09T11:56:39;4.63;;;3.42;;
61743;SDS011;48718;54.994;73.352;2022-07-09T11:59:11;5.63;;;3.45;;
61743;SDS011;48718;54.994;73.352;2022-07-09T12:01:38;4.10;;;3.65;;
61743;SDS011;48718;54.994;73.352;2022-07-09T12:04:05;4.72;;;3.38;;
61743;SDS011;48718;54.994;73.352;2022-07-09T12:06:32;5.32;;;3.90;;
61743;SDS011;48718;54.994;73.352;2022-07-09T12:09:02;4.00;;;3.25;;
61743;SDS011;48718;54.994;73.352;2022-07-09T12:11:52;3.90;;;3.50;;
61743;SDS011;48718;54.994;73.352;2022-07-09T12:14:36;5.45;;;3.40;;
61743;SDS011;48718;54.994;73.352;2022-07-09T12:17:25;5.18;;;3.88;;
61743;SDS011;48718;54.994;73.352;2022-07-09T12:20:11;6.03;;;3.88;;
61743;SDS011;48718;54.994;73.352;2022-07-09T12:22:58;4.07;;;3.60;;
61743;SDS011;48718;54.994;73.352;2022-07-09T12:25:53;4.90;;;3.97;;
61743;SDS011;48718;54.994;73.352;2022-07-09T12:28:38;3.97;;;3.10;;
61743;SDS011;48718;54.994;73.352;2022-07-09T12:31:23;6.57;;;4.60;;
61743;SDS011;48718;54.994;73.352;2022-07-09T12:34:08;4.30;;;3.85;;
61743;SDS011;48718;54.994;73.352;2022-07-09T12:36:53;5.25;;;4.18;;
61743;SDS011;48718;54.994;73.352;2022-07-09T12:41:52;3.92;;;3.47;;
61743;SDS011;48718;54.994;73.352;2022-07-09T12:44:19;4.38;;;3.50;;
61743;SDS011;48718;54.994;73.352;2022-07-09T12:46:46;7.28;;;3.67;;
61743;SDS011;48718;54.994;73.352;2022-07-09T12:49:13;4.93;;;4.00;;
61743;SDS011;48718;54.994;73.352;2022-07-09T12:51:40;4.43;;;3.55;;
61743;SDS011;48718;54.994;73.352;2022-07-09T12:54:06;6.40;;;4.10;;
61743;SDS011;48718;54.994;73.352;2022-07-09T12:56:33;5.63;;;3.80;;
61743;SDS011;48718;54.994;73.352;2022-07-09T12:58:59;6.28;;;3.80;;
61743;SDS011;48718;54.994;73.352;2022-07-09T13:01:26;6.88;;;4.00;;
61743;SDS011;48718;54.994;73.352;2022-07-09T13:03:52;4.18;;;3.60;;
61743;SDS011;48718;54.994;73.352;2022-07-09T13:06:26;3.88;;;3.30;;
61743;SDS011;48718;54.994;73.352;2022-07-09T13:09:02;5.67;;;3.57;;
61743;SDS011;48718;54.994;73.352;2022-07-09T13:11:31;5.25;;;3.70;;
61743;SDS011;48718;54.994;73.352;2022-07-09T13:13:58;6.28;;;3.28;;
61743;SDS011;48718;54.994;73.352;2022-07-09T13:16:25;6.10;;;3.45;;
61743;SDS011;48718;54.994;73.352;2022-07-09T13:18:52;6.47;;;3.58;;
61743;SDS011;48718;54.994;73.352;2022-07-09T13:21:19;4.07;;;3.60;;
61743;SDS011;48718;54.994;73.352;2022-07-09T13:23:47;5.10;;;3.58;;
61743;SDS011;48718;54.994;73.352;2022-07-09T13:26:14;7.90;;;4.05;;
61743;SDS011;48718;54.994;73.352;2022-07-09T13:28:47;5.40;;;4.03;;
61743;SDS011;48718;54.994;73.352;2022-07-09T13:31:14;4.68;;;3.55;;
61743;SDS011;48718;54.994;73.352;2022-07-09T13:33:41;7.03;;;3.60;;
61743;SDS011;48718;54.994;73.352;2022-07-09T13:36:08;5.50;;;3.97;;
61743;SDS011;48718;54.994;73.352;2022-07-09T13:38:34;4.63;;;3.42;;
61743;SDS011;48718;54.994;73.352;2022-07-09T13:41:01;6.30;;;3.83;;
61743;SDS011;48718;54.994;73.352;2022-07-09T13:43:28;5.90;;;3.85;;
61743;SDS011;48718;54.994;73.352;2022-07-09T13:45:55;8.40;;;4.03;;
61743;SDS011;48718;54.994;73.352;2022-07-09T13:48:28;9.07;;;5.38;;
61743;SDS011;48718;54.994;73.352;2022-07-09T13:50:55;11.57;;;5.38;;
61743;SDS011;48718;54.994;73.352;2022-07-09T13:53:21;7.80;;;4.72;;
61743;SDS011;48718;54.994;73.352;2022-07-09T13:55:48;11.70;;;5.60;;
61743;SDS011;48718;54.994;73.352;2022-07-09T13:58:15;13.63;;;6.68;;
61743;SDS011;48718;54.994;73.352;2022-07-09T14:03:15;14.95;;;6.40;;
61743;SDS011;48718;54.994;73.352;2022-07-09T14:05:42;14.02;;;7.03;;
61743;SDS011;48718;54.994;73.352;2022-07-09T14:08:09;11.40;;;6.05;;
61743;SDS011;48718;54.994;73.352;2022-07-09T14:10:35;12.07;;;5.70;;
61743;SDS011;48718;54.994;73.352;2022-07-09T14:13:02;10.48;;;6.50;;
61743;SDS011;48718;54.994;73.352;2022-07-09T14:15:30;12.68;;;6.03;;
61743;SDS011;48718;54.994;73.352;2022-07-09T14:17:58;16.77;;;7.10;;
61743;SDS011;48718;54.994;73.352;2022-07-09T14:20:25;18.88;;;10.15;;
61743;SDS011;48718;54.994;73.352;2022-07-09T14:22:52;19.38;;;9.88;;
61743;SDS011;48718;54.994;73.352;2022-07-09T14:25:18;18.13;;;8.85;;
61743;SDS011;48718;54.994;73.352;2022-07-09T14:27:48;12.88;;;8.15;;
61743;SDS011;48718;54.994;73.352;2022-07-09T14:30:14;17.02;;;11.85;;
61743;SDS011;48718;54.994;73.352;2022-07-09T14:32:46;19.80;;;13.93;;
61743;SDS011;48718;54.994;73.352;2022-07-09T14:35:13;15.50;;;10.75;;
61743;SDS011;48718;54.994;73.352;2022-07-09T14:37:40;16.48;;;10.05;;
61743;SDS011;48718;54.994;73.352;2022-07-09T14:40:06;10.93;;;7.85;;
61743;SDS011;48718;54.994;73.352;2022-07-09T14:42:34;15.73;;;8.55;;
61743;SDS011;48718;54.994;73.352;2022-07-09T14:45:00;13.43;;;7.07;;
61743;SDS011;48718;54.994;73.352;2022-07-09T14:47:28;12.52;;;8.18;;
61743;SDS011;48718;54.994;73.352;2022-07-09T14:50:00;8.57;;;6.47;;
61743;SDS011;48718;54.994;73.352;2022-07-09T14:52:27;13.98;;;6.78;;
61743;SDS011;48718;54.994;73.352;2022-07-09T14:54:54;9.60;;;6.43;;
61743;SDS011;48718;54.994;73.352;2022-07-09T14:57:27;14.82;;;6.90;;